sensor_id;sensor_type;location;lat;lon;timestamp;temperature;humidity
6752;DHT22;3413;47.680;9.166;2023-07-09T00:04:51;26.00;66.40
6752;DHT22;3413;47.680;9.166;2023-07-09T00:09:54;26.00;66.40
6752;DHT22;3413;47.680;9.166;2023-07-09T00:14:56;25.90;66.60
6752;DHT22;3413;47.680;9.166;2023-07-09T00:19:59;25.80;66.80
6752;DHT22;3413;47.680;9.166;2023-07-09T00:25:01;25.70;66.90
6752;DHT22;3413;47.680;9.166;2023-07-09T00:30:04;25.60;66.90
6752;DHT22;3413;47.680;9.166;2023-07-09T00:35:07;25.60;67.00
6752;DHT22;3413;47.680;9.166;2023-07-09T00:40:21;25.40;67.20
6752;DHT22;3413;47.680;9.166;2023-07-09T00:45:26;25.30;67.50
6752;DHT22;3413;47.680;9.166;2023-07-09T00:50:39;25.30;67.50
6752;DHT22;3413;47.680;9.166;2023-07-09T00:55:58;25.30;67.50
6752;DHT22;3413;47.680;9.166;2023-07-09T01:01:04;25.20;67.60
6752;DHT22;3413;47.680;9.166;2023-07-09T01:06:09;25.10;67.80
6752;DHT22;3413;47.680;9.166;2023-07-09T01:11:20;25.00;67.80
6752;DHT22;3413;47.680;9.166;2023-07-09T01:16:29;25.00;68.00
6752;DHT22;3413;47.680;9.166;2023-07-09T01:21:32;25.00;68.00
6752;DHT22;3413;47.680;9.166;2023-07-09T01:26:34;24.90;68.30
6752;DHT22;3413;47.680;9.166;2023-07-09T01:31:36;24.80;69.00
6752;DHT22;3413;47.680;9.166;2023-07-09T01:36:38;24.80;68.40
6752;DHT22;3413;47.680;9.166;2023-07-09T01:41:41;24.70;68.40
6752;DHT22;3413;47.680;9.166;2023-07-09T01:46:43;24.70;68.60
6752;DHT22;3413;47.680;9.166;2023-07-09T01:51:51;24.70;68.60
6752;DHT22;3413;47.680;9.166;2023-07-09T01:56:54;24.60;68.60
6752;DHT22;3413;47.680;9.166;2023-07-09T02:02:03;24.60;68.80
6752;DHT22;3413;47.680;9.166;2023-07-09T02:07:05;24.60;68.80
6752;DHT22;3413;47.680;9.166;2023-07-09T02:12:08;24.50;68.90
6752;DHT22;3413;47.680;9.166;2023-07-09T02:17:12;24.50;69.00
6752;DHT22;3413;47.680;9.166;2023-07-09T02:22:15;24.50;69.00
6752;DHT22;3413;47.680;9.166;2023-07-09T02:27:17;24.50;69.10
6752;DHT22;3413;47.680;9.166;2023-07-09T02:32:21;24.40;69.20
6752;DHT22;3413;47.680;9.166;2023-07-09T02:37:25;24.30;69.30
6752;DHT22;3413;47.680;9.166;2023-07-09T02:42:27;24.30;69.40
6752;DHT22;3413;47.680;9.166;2023-07-09T02:47:29;24.20;69.50
6752;DHT22;3413;47.680;9.166;2023-07-09T02:52:33;24.10;69.60
6752;DHT22;3413;47.680;9.166;2023-07-09T02:57:35;24.00;69.60
6752;DHT22;3413;47.680;9.166;2023-07-09T03:02:37;24.00;69.70
6752;DHT22;3413;47.680;9.166;2023-07-09T03:07:39;23.90;69.70
6752;DHT22;3413;47.680;9.166;2023-07-09T03:12:40;23.90;69.80
6752;DHT22;3413;47.680;9.166;2023-07-09T03:17:43;23.90;69.80
6752;DHT22;3413;47.680;9.166;2023-07-09T03:22:45;23.90;69.80
6752;DHT22;3413;47.680;9.166;2023-07-09T03:27:50;23.90;69.90
6752;DHT22;3413;47.680;9.166;2023-07-09T03:32:51;23.80;70.00
6752;DHT22;3413;47.680;9.166;2023-07-09T03:37:53;23.60;70.10
6752;DHT22;3413;47.680;9.166;2023-07-09T03:42:55;23.50;70.20
6752;DHT22;3413;47.680;9.166;2023-07-09T03:47:57;23.50;70.20
6752;DHT22;3413;47.680;9.166;2023-07-09T03:52:59;23.50;70.20
6752;DHT22;3413;47.680;9.166;2023-07-09T03:58:01;23.50;70.30
6752;DHT22;3413;47.680;9.166;2023-07-09T04:03:06;23.60;70.40
6752;DHT22;3413;47.680;9.166;2023-07-09T04:08:10;23.60;70.40
6752;DHT22;3413;47.680;9.166;2023-07-09T04:13:12;23.50;70.40
6752;DHT22;3413;47.680;9.166;2023-07-09T04:18:14;23.50;70.60
6752;DHT22;3413;47.680;9.166;2023-07-09T04:23:17;23.50;70.70
6752;DHT22;3413;47.680;9.166;2023-07-09T04:28:19;23.50;70.80
6752;DHT22;3413;47.680;9.166;2023-07-09T04:33:21;23.50;70.90
6752;DHT22;3413;47.680;9.166;2023-07-09T04:38:24;23.50;71.00
6752;DHT22;3413;47.680;9.166;2023-07-09T04:43:26;23.50;71.20
6752;DHT22;3413;47.680;9.166;2023-07-09T04:48:28;23.50;71.20
6752;DHT22;3413;47.680;9.166;2023-07-09T04:53:30;23.40;71.80
6752;DHT22;3413;47.680;9.166;2023-07-09T04:58:33;23.40;71.40
6752;DHT22;3413;47.680;9.166;2023-07-09T05:03:35;23.50;71.60
6752;DHT22;3413;47.680;9.166;2023-07-09T05:08:38;23.50;71.70
6752;DHT22;3413;47.680;9.166;2023-07-09T05:13:40;23.60;71.80
6752;DHT22;3413;47.680;9.166;2023-07-09T05:18:42;23.70;71.90
6752;DHT22;3413;47.680;9.166;2023-07-09T05:23:44;23.80;72.20
6752;DHT22;3413;47.680;9.166;2023-07-09T05:28:46;23.90;72.20
6752;DHT22;3413;47.680;9.166;2023-07-09T05:33:48;24.00;72.40
6752;DHT22;3413;47.680;9.166;2023-07-09T05:38:50;24.00;72.70
6752;DHT22;3413;47.680;9.166;2023-07-09T05:43:52;24.10;72.90
6752;DHT22;3413;47.680;9.166;2023-07-09T05:48:54;24.20;73.10
6752;DHT22;3413;47.680;9.166;2023-07-09T05:53:56;24.40;73.20
6752;DHT22;3413;47.680;9.166;2023-07-09T05:58:59;24.50;73.20
6752;DHT22;3413;47.680;9.166;2023-07-09T06:04:01;24.60;73.30
6752;DHT22;3413;47.680;9.166;2023-07-09T06:09:03;24.80;73.50
6752;DHT22;3413;47.680;9.166;2023-07-09T06:14:05;24.90;73.60
6752;DHT22;3413;47.680;9.166;2023-07-09T06:19:07;25.00;73.60
6752;DHT22;3413;47.680;9.166;2023-07-09T06:24:10;25.00;73.70
6752;DHT22;3413;47.680;9.166;2023-07-09T06:29:12;25.10;73.70
6752;DHT22;3413;47.680;9.166;2023-07-09T06:34:14;25.20;73.70
6752;DHT22;3413;47.680;9.166;2023-07-09T06:39:18;25.40;73.90
6752;DHT22;3413;47.680;9.166;2023-07-09T06:44:21;25.50;73.90
6752;DHT22;3413;47.680;9.166;2023-07-09T06:49:22;25.60;74.00
6752;DHT22;3413;47.680;9.166;2023-07-09T06:54:25;25.80;73.90
6752;DHT22;3413;47.680;9.166;2023-07-09T06:59:27;25.90;73.80
6752;DHT22;3413;47.680;9.166;2023-07-09T07:04:29;26.10;73.80
6752;DHT22;3413;47.680;9.166;2023-07-09T07:09:31;26.20;73.90
6752;DHT22;3413;47.680;9.166;2023-07-09T07:14:33;26.30;73.90
6752;DHT22;3413;47.680;9.166;2023-07-09T07:19:35;26.40;73.90
6752;DHT22;3413;47.680;9.166;2023-07-09T07:24:36;26.50;73.90
6752;DHT22;3413;47.680;9.166;2023-07-09T07:29:38;26.60;73.90
6752;DHT22;3413;47.680;9.166;2023-07-09T07:34:40;26.80;74.00
6752;DHT22;3413;47.680;9.166;2023-07-09T07:39:42;26.90;74.00
6752;DHT22;3413;47.680;9.166;2023-07-09T07:44:44;27.10;74.10
6752;DHT22;3413;47.680;9.166;2023-07-09T07:49:46;27.30;74.00
6752;DHT22;3413;47.680;9.166;2023-07-09T07:54:49;27.40;74.00
6752;DHT22;3413;47.680;9.166;2023-07-09T07:59:51;27.60;74.00
6752;DHT22;3413;47.680;9.166;2023-07-09T08:04:53;27.70;74.00
6752;DHT22;3413;47.680;9.166;2023-07-09T08:09:55;28.00;74.10
6752;DHT22;3413;47.680;9.166;2023-07-09T08:14:57;28.20;74.80
6752;DHT22;3413;47.680;9.166;2023-07-09T08:19:59;28.40;74.10
6752;DHT22;3413;47.680;9.166;2023-07-09T08:25:01;28.50;74.00
6752;DHT22;3413;47.680;9.166;2023-07-09T08:30:03;28.50;74.00
6752;DHT22;3413;47.680;9.166;2023-07-09T08:35:06;28.70;74.10
6752;DHT22;3413;47.680;9.166;2023-07-09T08:40:28;28.80;74.00
6752;DHT22;3413;47.680;9.166;2023-07-09T08:50:48;29.10;74.00
6752;DHT22;3413;47.680;9.166;2023-07-09T08:55:52;29.20;74.10
6752;DHT22;3413;47.680;9.166;2023-07-09T09:00:56;29.40;74.20
6752;DHT22;3413;47.680;9.166;2023-07-09T09:05:59;29.60;74.10
6752;DHT22;3413;47.680;9.166;2023-07-09T09:11:29;29.80;74.10
6752;DHT22;3413;47.680;9.166;2023-07-09T09:16:36;30.10;74.10
6752;DHT22;3413;47.680;9.166;2023-07-09T09:21:40;30.40;74.30
6752;DHT22;3413;47.680;9.166;2023-07-09T09:26:44;30.70;74.40
6752;DHT22;3413;47.680;9.166;2023-07-09T09:31:51;31.00;74.20
6752;DHT22;3413;47.680;9.166;2023-07-09T09:36:58;31.30;74.10
6752;DHT22;3413;47.680;9.166;2023-07-09T09:42:01;31.60;74.20
6752;DHT22;3413;47.680;9.166;2023-07-09T09:47:03;31.90;74.00
6752;DHT22;3413;47.680;9.166;2023-07-09T09:52:14;32.20;74.00
6752;DHT22;3413;47.680;9.166;2023-07-09T09:57:20;32.60;74.00
6752;DHT22;3413;47.680;9.166;2023-07-09T10:02:24;32.80;73.90
6752;DHT22;3413;47.680;9.166;2023-07-09T10:07:41;33.10;73.80
6752;DHT22;3413;47.680;9.166;2023-07-09T10:12:53;33.30;73.60
6752;DHT22;3413;47.680;9.166;2023-07-09T10:28:35;33.50;73.30
6752;DHT22;3413;47.680;9.166;2023-07-09T10:39:29;33.60;73.30
6752;DHT22;3413;47.680;9.166;2023-07-09T10:44:41;33.90;73.30
6752;DHT22;3413;47.680;9.166;2023-07-09T10:49:44;34.00;73.20
6752;DHT22;3413;47.680;9.166;2023-07-09T10:59:52;34.00;72.90
6752;DHT22;3413;47.680;9.166;2023-07-09T11:05:05;34.20;72.60
6752;DHT22;3413;47.680;9.166;2023-07-09T11:10:21;34.30;72.40
6752;DHT22;3413;47.680;9.166;2023-07-09T11:15:35;34.50;72.10
6752;DHT22;3413;47.680;9.166;2023-07-09T11:20:43;34.70;71.80
6752;DHT22;3413;47.680;9.166;2023-07-09T11:25:49;34.90;71.70
6752;DHT22;3413;47.680;9.166;2023-07-09T11:30:53;34.90;71.20
6752;DHT22;3413;47.680;9.166;2023-07-09T11:36:14;34.80;71.00
6752;DHT22;3413;47.680;9.166;2023-07-09T11:46:30;35.00;70.60
6752;DHT22;3413;47.680;9.166;2023-07-09T11:51:42;34.90;70.20
6752;DHT22;3413;47.680;9.166;2023-07-09T11:56:59;35.00;70.00
6752;DHT22;3413;47.680;9.166;2023-07-09T12:02:03;35.30;69.80
6752;DHT22;3413;47.680;9.166;2023-07-09T12:07:06;35.40;69.50
6752;DHT22;3413;47.680;9.166;2023-07-09T12:12:19;35.30;69.30
6752;DHT22;3413;47.680;9.166;2023-07-09T12:17:28;35.40;68.90
6752;DHT22;3413;47.680;9.166;2023-07-09T12:22:32;35.30;68.60
6752;DHT22;3413;47.680;9.166;2023-07-09T12:27:34;35.30;68.50
6752;DHT22;3413;47.680;9.166;2023-07-09T12:32:46;35.40;68.30
6752;DHT22;3413;47.680;9.166;2023-07-09T12:37:50;35.80;68.00
6752;DHT22;3413;47.680;9.166;2023-07-09T12:42:54;36.20;67.90
6752;DHT22;3413;47.680;9.166;2023-07-09T12:47:59;36.30;67.40
6752;DHT22;3413;47.680;9.166;2023-07-09T12:53:11;36.40;67.10
6752;DHT22;3413;47.680;9.166;2023-07-09T12:58:22;36.50;66.80
6752;DHT22;3413;47.680;9.166;2023-07-09T13:03:29;36.70;66.80
6752;DHT22;3413;47.680;9.166;2023-07-09T13:08:40;36.70;66.50
6752;DHT22;3413;47.680;9.166;2023-07-09T13:13:52;36.80;66.10
6752;DHT22;3413;47.680;9.166;2023-07-09T13:18:55;37.00;66.10
6752;DHT22;3413;47.680;9.166;2023-07-09T13:23:57;37.10;65.70
6752;DHT22;3413;47.680;9.166;2023-07-09T13:29:00;37.20;65.40
6752;DHT22;3413;47.680;9.166;2023-07-09T13:34:18;37.30;65.20
6752;DHT22;3413;47.680;9.166;2023-07-09T13:39:20;37.40;64.90
6752;DHT22;3413;47.680;9.166;2023-07-09T13:44:26;37.60;64.90
6752;DHT22;3413;47.680;9.166;2023-07-09T13:49:29;37.70;64.50
6752;DHT22;3413;47.680;9.166;2023-07-09T13:54:32;37.90;64.50
6752;DHT22;3413;47.680;9.166;2023-07-09T13:59:37;38.20;64.20
6752;DHT22;3413;47.680;9.166;2023-07-09T14:04:40;38.40;63.90
6752;DHT22;3413;47.680;9.166;2023-07-09T14:09:41;38.40;63.80
6752;DHT22;3413;47.680;9.166;2023-07-09T14:14:43;38.40;63.40
6752;DHT22;3413;47.680;9.166;2023-07-09T14:19:48;38.50;63.30
6752;DHT22;3413;47.680;9.166;2023-07-09T14:24:51;38.40;62.90
6752;DHT22;3413;47.680;9.166;2023-07-09T14:29:54;38.60;62.70
6752;DHT22;3413;47.680;9.166;2023-07-09T14:34:56;38.80;62.50
6752;DHT22;3413;47.680;9.166;2023-07-09T14:39:57;39.20;62.40
6752;DHT22;3413;47.680;9.166;2023-07-09T14:45:00;39.40;61.90
6752;DHT22;3413;47.680;9.166;2023-07-09T14:50:01;39.60;61.70
6752;DHT22;3413;47.680;9.166;2023-07-09T14:55:05;39.80;61.10
6752;DHT22;3413;47.680;9.166;2023-07-09T15:00:11;39.90;60.80
6752;DHT22;3413;47.680;9.166;2023-07-09T15:05:20;40.00;60.60
6752;DHT22;3413;47.680;9.166;2023-07-09T15:10:26;40.10;60.40
6752;DHT22;3413;47.680;9.166;2023-07-09T15:15:30;40.10;59.70
6752;DHT22;3413;47.680;9.166;2023-07-09T15:20:32;40.10;59.70
6752;DHT22;3413;47.680;9.166;2023-07-09T15:25:34;40.10;59.50
6752;DHT22;3413;47.680;9.166;2023-07-09T15:30:36;40.10;59.20
6752;DHT22;3413;47.680;9.166;2023-07-09T15:35:38;40.10;59.20
6752;DHT22;3413;47.680;9.166;2023-07-09T15:40:40;40.20;59.00
6752;DHT22;3413;47.680;9.166;2023-07-09T15:45:45;40.10;58.70
6752;DHT22;3413;47.680;9.166;2023-07-09T15:50:48;40.20;58.50
6752;DHT22;3413;47.680;9.166;2023-07-09T15:55:57;40.20;58.80
6752;DHT22;3413;47.680;9.166;2023-07-09T16:00:59;40.30;58.00
6752;DHT22;3413;47.680;9.166;2023-07-09T16:06:01;40.20;57.70
6752;DHT22;3413;47.680;9.166;2023-07-09T16:11:15;40.30;57.50
6752;DHT22;3413;47.680;9.166;2023-07-09T16:16:20;40.20;57.20
6752;DHT22;3413;47.680;9.166;2023-07-09T16:21:25;40.30;57.10
6752;DHT22;3413;47.680;9.166;2023-07-09T16:26:28;40.20;56.80
6752;DHT22;3413;47.680;9.166;2023-07-09T16:31:30;40.20;56.70
6752;DHT22;3413;47.680;9.166;2023-07-09T16:36:32;40.00;56.40
6752;DHT22;3413;47.680;9.166;2023-07-09T16:41:34;40.10;56.20
6752;DHT22;3413;47.680;9.166;2023-07-09T16:46:35;40.00;55.90
6752;DHT22;3413;47.680;9.166;2023-07-09T16:51:37;40.10;55.90
6752;DHT22;3413;47.680;9.166;2023-07-09T16:56:39;40.10;55.60
6752;DHT22;3413;47.680;9.166;2023-07-09T17:01:41;40.10;55.50
6752;DHT22;3413;47.680;9.166;2023-07-09T17:06:45;40.20;55.30
6752;DHT22;3413;47.680;9.166;2023-07-09T17:11:57;40.10;55.10
6752;DHT22;3413;47.680;9.166;2023-07-09T17:17:00;40.00;54.80
6752;DHT22;3413;47.680;9.166;2023-07-09T17:22:21;40.10;54.80
6752;DHT22;3413;47.680;9.166;2023-07-09T17:27:27;40.20;54.60
6752;DHT22;3413;47.680;9.166;2023-07-09T17:32:29;40.20;54.50
6752;DHT22;3413;47.680;9.166;2023-07-09T17:37:31;40.30;54.30
6752;DHT22;3413;47.680;9.166;2023-07-09T17:42:33;40.30;54.10
6752;DHT22;3413;47.680;9.166;2023-07-09T17:47:36;40.30;53.90
6752;DHT22;3413;47.680;9.166;2023-07-09T17:52:38;40.20;53.80
6752;DHT22;3413;47.680;9.166;2023-07-09T17:57:43;40.10;53.70
6752;DHT22;3413;47.680;9.166;2023-07-09T18:02:55;39.90;53.40
6752;DHT22;3413;47.680;9.166;2023-07-09T18:07:58;39.90;53.20
6752;DHT22;3413;47.680;9.166;2023-07-09T18:13:07;39.80;53.10
6752;DHT22;3413;47.680;9.166;2023-07-09T18:18:13;39.70;52.80
6752;DHT22;3413;47.680;9.166;2023-07-09T18:23:15;39.70;52.70
6752;DHT22;3413;47.680;9.166;2023-07-09T18:28:29;39.70;52.70
6752;DHT22;3413;47.680;9.166;2023-07-09T18:33:32;39.60;53.30
6752;DHT22;3413;47.680;9.166;2023-07-09T18:38:34;39.50;52.90
6752;DHT22;3413;47.680;9.166;2023-07-09T18:43:36;39.30;52.90
6752;DHT22;3413;47.680;9.166;2023-07-09T18:48:38;39.20;53.00
6752;DHT22;3413;47.680;9.166;2023-07-09T18:53:41;39.10;52.80
6752;DHT22;3413;47.680;9.166;2023-07-09T18:58:43;39.00;52.80
6752;DHT22;3413;47.680;9.166;2023-07-09T19:03:45;38.80;52.60
6752;DHT22;3413;47.680;9.166;2023-07-09T19:08:47;38.60;52.60
6752;DHT22;3413;47.680;9.166;2023-07-09T19:13:49;38.40;52.60
6752;DHT22;3413;47.680;9.166;2023-07-09T19:18:51;38.10;52.50
6752;DHT22;3413;47.680;9.166;2023-07-09T19:23:54;37.80;52.50
6752;DHT22;3413;47.680;9.166;2023-07-09T19:28:55;37.50;52.40
6752;DHT22;3413;47.680;9.166;2023-07-09T19:33:57;37.30;52.40
6752;DHT22;3413;47.680;9.166;2023-07-09T19:38:59;37.00;53.00
6752;DHT22;3413;47.680;9.166;2023-07-09T19:44:01;36.60;52.50
6752;DHT22;3413;47.680;9.166;2023-07-09T19:49:04;36.30;52.60
6752;DHT22;3413;47.680;9.166;2023-07-09T19:54:17;35.90;52.60
6752;DHT22;3413;47.680;9.166;2023-07-09T19:59:19;35.60;52.60
6752;DHT22;3413;47.680;9.166;2023-07-09T20:04:21;35.30;52.70
6752;DHT22;3413;47.680;9.166;2023-07-09T20:09:24;34.70;52.90
6752;DHT22;3413;47.680;9.166;2023-07-09T20:14:26;34.30;53.00
6752;DHT22;3413;47.680;9.166;2023-07-09T20:19:28;34.20;53.00
6752;DHT22;3413;47.680;9.166;2023-07-09T20:24:30;34.10;52.80
6752;DHT22;3413;47.680;9.166;2023-07-09T20:29:32;33.90;52.80
6752;DHT22;3413;47.680;9.166;2023-07-09T20:34:33;33.70;52.80
6752;DHT22;3413;47.680;9.166;2023-07-09T20:39:36;33.60;52.80
6752;DHT22;3413;47.680;9.166;2023-07-09T20:44:39;33.20;52.90
6752;DHT22;3413;47.680;9.166;2023-07-09T20:49:41;32.90;52.90
6752;DHT22;3413;47.680;9.166;2023-07-09T20:54:44;32.70;53.00
6752;DHT22;3413;47.680;9.166;2023-07-09T20:59:46;32.50;52.90
6752;DHT22;3413;47.680;9.166;2023-07-09T21:04:49;32.20;53.70
6752;DHT22;3413;47.680;9.166;2023-07-09T21:09:51;31.90;53.20
6752;DHT22;3413;47.680;9.166;2023-07-09T21:14:53;31.70;53.10
6752;DHT22;3413;47.680;9.166;2023-07-09T21:19:55;31.50;53.20
6752;DHT22;3413;47.680;9.166;2023-07-09T21:25:12;31.30;53.30
6752;DHT22;3413;47.680;9.166;2023-07-09T21:30:17;31.20;53.40
6752;DHT22;3413;47.680;9.166;2023-07-09T21:35:25;31.00;53.40
6752;DHT22;3413;47.680;9.166;2023-07-09T21:40:30;30.70;53.40
6752;DHT22;3413;47.680;9.166;2023-07-09T21:45:38;30.60;53.40
6752;DHT22;3413;47.680;9.166;2023-07-09T21:50:40;30.60;53.40
6752;DHT22;3413;47.680;9.166;2023-07-09T21:55:43;30.70;53.40
6752;DHT22;3413;47.680;9.166;2023-07-09T22:00:45;30.70;53.40
6752;DHT22;3413;47.680;9.166;2023-07-09T22:05:57;30.60;53.40
6752;DHT22;3413;47.680;9.166;2023-07-09T22:10:59;30.50;53.40
6752;DHT22;3413;47.680;9.166;2023-07-09T22:16:01;30.40;53.60
6752;DHT22;3413;47.680;9.166;2023-07-09T22:21:04;30.00;53.80
6752;DHT22;3413;47.680;9.166;2023-07-09T22:26:07;29.90;54.00
6752;DHT22;3413;47.680;9.166;2023-07-09T22:31:11;29.70;54.00
6752;DHT22;3413;47.680;9.166;2023-07-09T22:36:15;29.70;54.10
6752;DHT22;3413;47.680;9.166;2023-07-09T22:41:17;29.60;54.10
6752;DHT22;3413;47.680;9.166;2023-07-09T22:46:20;29.50;54.40
6752;DHT22;3413;47.680;9.166;2023-07-09T22:51:23;29.40;54.50
6752;DHT22;3413;47.680;9.166;2023-07-09T22:56:25;29.20;54.60
6752;DHT22;3413;47.680;9.166;2023-07-09T23:01:28;29.10;54.70
6752;DHT22;3413;47.680;9.166;2023-07-09T23:06:31;29.00;54.90
6752;DHT22;3413;47.680;9.166;2023-07-09T23:11:41;28.90;55.00
6752;DHT22;3413;47.680;9.166;2023-07-09T23:16:44;28.80;55.20
6752;DHT22;3413;47.680;9.166;2023-07-09T23:21:46;28.70;55.20
6752;DHT22;3413;47.680;9.166;2023-07-09T23:26:51;28.60;56.00
6752;DHT22;3413;47.680;9.166;2023-07-09T23:31:53;28.50;55.50
6752;DHT22;3413;47.680;9.166;2023-07-09T23:36:55;28.40;55.60
6752;DHT22;3413;47.680;9.166;2023-07-09T23:41:57;28.40;55.80
6752;DHT22;3413;47.680;9.166;2023-07-09T23:46:59;28.20;55.80
6752;DHT22;3413;47.680;9.166;2023-07-09T23:52:04;28.20;55.90
6752;DHT22;3413;47.680;9.166;2023-07-09T23:57:07;28.10;56.00
